createdAt,value
2018-09-03T00:00:26.538Z,1016.19
2018-09-03T00:01:26.559Z,1016.19
2018-09-03T00:02:26.523Z,1016.21
2018-09-03T00:03:26.555Z,1016.21
2018-09-03T00:04:26.594Z,1016.20
2018-09-03T00:05:26.601Z,1016.31
2018-09-03T00:06:26.609Z,1016.22
2018-09-03T00:07:26.588Z,1016.21
2018-09-03T00:08:26.654Z,1016.19
2018-09-03T00:09:26.616Z,1016.25
2018-09-03T00:10:26.617Z,1016.22
2018-09-03T00:11:26.667Z,1016.13
2018-09-03T00:12:26.672Z,1016.12
2018-09-03T00:13:26.687Z,1016.14
2018-09-03T00:14:26.673Z,1016.19
2018-09-03T00:15:26.722Z,1016.14
2018-09-03T00:16:26.716Z,1016.10
2018-09-03T00:17:26.724Z,1016.15
2018-09-03T00:18:26.749Z,1016.09
2018-09-03T00:19:26.743Z,1016.05
2018-09-03T00:20:26.756Z,1016.10
2018-09-03T00:21:26.789Z,1016.07
2018-09-03T00:22:26.787Z,1016.06
2018-09-03T00:23:26.789Z,1016.04
2018-09-03T00:24:26.812Z,1016.04
2018-09-03T00:25:26.878Z,1016.02
2018-09-03T00:26:26.825Z,1016.13
2018-09-03T00:27:26.837Z,1016.01
2018-09-03T00:28:26.843Z,1015.98
2018-09-03T00:29:26.868Z,1016.02
2018-09-03T00:30:26.913Z,1015.99
2018-09-03T00:31:26.907Z,1015.96
2018-09-03T00:32:26.901Z,1015.99
2018-09-03T00:33:26.914Z,1015.97
2018-09-03T00:34:26.918Z,1016.09
2018-09-03T00:35:26.921Z,1015.98
2018-09-03T00:36:26.968Z,1016.00
2018-09-03T00:37:26.954Z,1015.96
2018-09-03T00:38:27.003Z,1015.96
2018-09-03T00:39:26.964Z,1015.92
2018-09-03T00:40:26.985Z,1015.94
2018-09-03T00:41:27.049Z,1015.91
2018-09-03T00:42:27.021Z,1015.88
2018-09-03T00:43:27.033Z,1015.97
2018-09-03T00:44:27.046Z,1015.98
2018-09-03T00:45:27.085Z,1015.91
2018-09-03T00:46:27.056Z,1015.94
2018-09-03T00:47:27.075Z,1015.92
2018-09-03T00:48:27.104Z,1015.95
2018-09-03T00:49:27.093Z,1015.97
2018-09-03T00:50:27.141Z,1015.92
2018-09-03T00:51:27.165Z,1015.93
2018-09-03T00:52:27.130Z,1015.97
2018-09-03T00:53:27.145Z,1015.94
2018-09-03T00:54:27.188Z,1015.96
2018-09-03T01:07:26.006Z,1015.93
2018-09-03T01:08:25.971Z,1015.94
2018-09-03T01:09:25.993Z,1015.93
2018-09-03T01:10:26.049Z,1015.96
2018-09-03T01:11:26.004Z,1015.88
2018-09-03T01:12:26.034Z,1015.96
2018-09-03T01:13:26.060Z,1015.91
2018-09-03T01:14:26.075Z,1015.93
2018-09-03T01:15:26.064Z,1015.93
2018-09-03T01:16:26.120Z,1015.97
2018-09-03T01:17:26.119Z,1015.92
2018-09-03T01:18:26.091Z,1015.96
2018-09-03T01:19:26.110Z,1016.11
2018-09-03T01:20:26.133Z,1015.96
2018-09-03T01:21:26.185Z,1015.98
2018-09-03T01:22:26.174Z,1015.98
2018-09-03T01:23:26.146Z,1015.97
2018-09-03T01:24:26.174Z,1016.03
2018-09-03T01:25:26.203Z,1016.06
2018-09-03T01:26:26.192Z,1015.98
2018-09-03T01:27:26.223Z,1016.04
2018-09-03T01:28:26.214Z,1015.99
2018-09-03T01:29:26.238Z,1016.02
2018-09-03T01:30:26.226Z,1016.04
2018-09-03T01:31:26.258Z,1016.13
2018-09-03T01:32:26.309Z,1016.17
2018-09-03T01:33:26.317Z,1016.05
2018-09-03T01:34:26.311Z,1016.05
2018-09-03T01:35:26.299Z,1016.12
2018-09-03T01:36:26.327Z,1016.11
2018-09-03T01:37:26.346Z,1016.12
2018-09-03T01:38:26.333Z,1016.11
2018-09-03T01:39:26.343Z,1016.13
2018-09-03T01:40:26.388Z,1016.07
2018-09-03T01:41:26.372Z,1016.11
2018-09-03T01:42:26.414Z,1016.11
2018-09-03T01:43:26.408Z,1016.13
2018-09-03T01:44:26.440Z,1016.13
2018-09-03T01:45:26.412Z,1016.15
2018-09-03T01:46:26.412Z,1016.20
2018-09-03T01:47:26.472Z,1016.15
2018-09-03T01:48:26.452Z,1016.18
2018-09-03T01:49:26.495Z,1016.17
2018-09-03T01:50:26.492Z,1016.11
2018-09-03T01:51:26.525Z,1016.11
2018-09-03T01:52:26.482Z,1016.14
2018-09-03T01:53:26.520Z,1016.12
2018-09-03T01:54:26.539Z,1016.16
2018-09-03T01:55:26.554Z,1016.13
2018-09-03T01:56:26.542Z,1016.14
2018-09-03T01:57:26.548Z,1016.15
2018-09-03T01:58:26.593Z,1016.16
2018-09-03T01:59:26.580Z,1016.16
2018-09-03T02:00:26.629Z,1016.09
2018-09-03T02:01:26.589Z,1016.12
2018-09-03T02:02:26.619Z,1016.13
2018-09-03T02:03:26.636Z,1016.16
2018-09-03T02:04:26.628Z,1016.15
2018-09-03T02:05:26.690Z,1016.14
2018-09-03T02:06:26.705Z,1016.11
2018-09-03T02:07:26.671Z,1016.11
2018-09-03T02:08:26.686Z,1016.11
2018-09-03T02:09:26.737Z,1016.11
2018-09-03T02:10:26.713Z,1016.07
2018-09-03T02:11:26.759Z,1016.08
2018-09-03T02:12:26.815Z,1016.06
2018-09-03T02:13:26.765Z,1016.09
2018-09-03T02:14:26.767Z,1016.06
2018-09-03T02:15:26.760Z,1016.12
2018-09-03T02:16:26.779Z,1016.06
2018-09-03T02:17:26.817Z,1016.06
2018-09-03T02:18:26.807Z,1016.04
2018-09-03T02:19:26.816Z,1016.12
2018-09-03T02:20:26.861Z,1016.06
2018-09-03T02:21:26.830Z,1016.08
2018-09-03T02:22:26.880Z,1016.07
2018-09-03T02:23:26.888Z,1016.02
2018-09-03T02:24:26.938Z,1016.09
2018-09-03T02:25:26.900Z,1016.05
2018-09-03T02:26:26.910Z,1016.04
2018-09-03T02:27:26.915Z,1016.04
2018-09-03T02:28:26.935Z,1016.02
2018-09-03T02:29:26.971Z,1016.06
2018-09-03T02:30:26.936Z,1016.10
2018-09-03T02:31:26.967Z,1016.06
2018-09-03T02:32:26.996Z,1016.09
2018-09-03T02:33:26.983Z,1016.04
2018-09-03T02:34:27.025Z,1016.10
2018-09-03T02:35:27.018Z,1016.06
2018-09-03T02:36:27.019Z,1016.03
2018-09-03T02:37:27.022Z,1016.06
2018-09-03T02:38:27.041Z,1016.04
2018-09-03T02:39:27.079Z,1016.04
2018-09-03T02:40:27.071Z,1016.03
2018-09-03T02:41:27.113Z,1016.03
2018-09-03T02:42:27.099Z,1016.04
2018-09-03T02:43:27.104Z,1015.98
2018-09-03T02:44:27.141Z,1015.96
2018-09-03T02:45:27.149Z,1015.99
2018-09-03T02:46:27.145Z,1015.98
2018-09-03T02:47:27.169Z,1015.90
2018-09-03T02:48:27.163Z,1016.01
2018-09-03T02:49:27.166Z,1015.93
2018-09-03T02:50:27.198Z,1015.89
2018-09-03T02:51:27.194Z,1015.91
2018-09-03T02:52:27.261Z,1015.92
2018-09-03T02:53:27.224Z,1015.87
2018-09-03T02:54:27.221Z,1015.86
2018-09-03T02:55:27.276Z,1015.80
2018-09-03T02:56:27.273Z,1015.84
2018-09-03T02:57:27.299Z,1015.79
2018-09-03T02:58:27.324Z,1015.79
2018-09-03T02:59:27.286Z,1015.68
2018-09-03T03:00:27.300Z,1015.69
2018-09-03T03:01:27.307Z,1015.69
2018-09-03T03:02:27.350Z,1015.66
2018-09-03T03:03:27.326Z,1015.64
2018-09-03T03:04:27.349Z,1015.67
2018-09-03T03:05:27.382Z,1015.63
2018-09-03T03:06:27.379Z,1015.67
2018-09-03T03:07:27.440Z,1015.65
2018-09-03T03:08:27.426Z,1015.67
2018-09-03T03:09:27.398Z,1015.71
2018-09-03T03:10:27.420Z,1015.65
2018-09-03T03:11:27.441Z,1015.64
2018-09-03T03:12:27.479Z,1015.65
2018-09-03T03:13:27.450Z,1015.71
2018-09-03T03:14:27.498Z,1015.63
2018-09-03T03:15:27.477Z,1015.62
2018-09-03T03:16:27.502Z,1015.59
2018-09-03T03:17:27.498Z,1015.58
2018-09-03T03:18:27.515Z,1015.63
2018-09-03T03:19:27.573Z,1015.60
2018-09-03T03:20:27.549Z,1015.58
2018-09-03T03:21:27.550Z,1015.61
2018-09-03T03:22:27.567Z,1015.60
2018-09-03T03:23:27.598Z,1015.59
2018-09-03T03:24:27.584Z,1015.58
2018-09-03T03:25:27.607Z,1015.54
2018-09-03T03:26:27.600Z,1015.62
2018-09-03T03:27:27.630Z,1015.62
2018-09-03T03:28:27.668Z,1015.60
2018-09-03T03:29:27.663Z,1015.63
2018-09-03T03:30:27.695Z,1015.62
2018-09-03T03:31:27.659Z,1015.58
2018-09-03T03:32:27.726Z,1015.59
2018-09-03T03:33:27.681Z,1015.57
2018-09-03T03:34:27.711Z,1015.61
2018-09-03T03:35:27.697Z,1015.58
2018-09-03T03:36:27.726Z,1015.55
2018-09-03T03:37:27.758Z,1015.53
2018-09-03T03:38:27.750Z,1015.53
2018-09-03T03:39:27.778Z,1015.56
2018-09-03T03:40:27.783Z,1015.55
2018-09-03T03:41:27.806Z,1015.57
2018-09-03T03:42:27.801Z,1015.56
2018-09-03T03:43:27.803Z,1015.50
2018-09-03T03:44:27.814Z,1015.53
2018-09-03T03:45:27.830Z,1015.52
2018-09-03T03:46:27.853Z,1015.49
2018-09-03T03:47:27.882Z,1015.49
2018-09-03T03:48:27.873Z,1015.54
2018-09-03T03:49:27.881Z,1015.50
2018-09-03T03:50:27.899Z,1015.50
2018-09-03T03:51:27.926Z,1015.50
2018-09-03T03:52:27.934Z,1015.47
2018-09-03T03:53:27.912Z,1015.50
2018-09-03T03:54:27.941Z,1015.48
2018-09-03T03:55:27.943Z,1015.45
2018-09-03T03:56:27.992Z,1015.46
2018-09-03T03:57:27.967Z,1015.44
2018-09-03T03:58:27.978Z,1015.45
2018-09-03T03:59:27.983Z,1015.42
2018-09-03T04:00:28.051Z,1015.46
2018-09-03T04:01:28.015Z,1015.41
2018-09-03T04:02:28.025Z,1015.47
2018-09-03T04:03:28.061Z,1015.44
2018-09-03T04:04:28.061Z,1015.44
2018-09-03T04:05:28.068Z,1015.40
2018-09-03T04:06:28.103Z,1015.40
2018-09-03T04:07:28.097Z,1015.43
2018-09-03T04:08:28.114Z,1015.40
2018-09-03T04:09:28.116Z,1015.37
2018-09-03T04:10:28.127Z,1015.35
2018-09-03T04:11:28.139Z,1015.34
2018-09-03T04:12:28.160Z,1015.37
2018-09-03T04:13:28.151Z,1015.39
2018-09-03T04:14:28.196Z,1015.40
2018-09-03T04:15:28.174Z,1015.37
2018-09-03T04:16:28.170Z,1015.34
2018-09-03T04:17:28.237Z,1015.40
2018-09-03T04:18:28.207Z,1015.38
2018-09-03T04:19:28.210Z,1015.37
2018-09-03T04:20:28.216Z,1015.37
2018-09-03T04:21:28.257Z,1015.34
2018-09-03T04:22:28.277Z,1015.42
2018-09-03T04:23:28.451Z,1015.46
2018-09-03T04:24:28.295Z,1015.44
2018-09-03T04:25:28.291Z,1015.44
2018-09-03T04:26:28.302Z,1015.43
2018-09-03T04:27:28.336Z,1015.46
2018-09-03T04:28:28.366Z,1015.42
2018-09-03T04:29:28.339Z,1015.39
2018-09-03T04:30:28.344Z,1015.42
2018-09-03T04:31:28.366Z,1015.45
2018-09-03T04:32:28.378Z,1015.44
2018-09-03T04:33:28.412Z,1015.46
2018-09-03T04:34:28.392Z,1015.45
2018-09-03T04:35:28.402Z,1015.48
2018-09-03T04:36:28.478Z,1015.45
2018-09-03T04:37:28.408Z,1015.46
2018-09-03T04:38:28.449Z,1015.45
2018-09-03T04:39:28.468Z,1015.46
2018-09-03T04:40:28.460Z,1015.44
2018-09-03T04:41:28.492Z,1015.45
2018-09-03T04:42:28.468Z,1015.46
2018-09-03T04:43:28.536Z,1015.46
2018-09-03T04:44:28.512Z,1015.53
2018-09-03T04:45:28.526Z,1015.54
2018-09-03T04:46:28.534Z,1015.48
2018-09-03T04:47:28.596Z,1015.52
2018-09-03T04:48:28.545Z,1015.54
2018-09-03T04:49:28.555Z,1015.47
2018-09-03T04:50:28.588Z,1015.56
2018-09-03T04:51:28.588Z,1015.48
2018-09-03T04:52:28.625Z,1015.50
2018-09-03T04:53:28.637Z,1015.52
2018-09-03T04:54:28.639Z,1015.53
2018-09-03T04:55:28.623Z,1015.57
2018-09-03T04:56:28.622Z,1015.53
2018-09-03T04:57:28.653Z,1015.57
2018-09-03T04:58:28.689Z,1015.61
2018-09-03T04:59:28.723Z,1015.63
2018-09-03T05:00:28.694Z,1015.64
2018-09-03T05:01:28.703Z,1015.63
2018-09-03T05:02:28.721Z,1015.63
2018-09-03T05:03:28.728Z,1015.65
2018-09-03T05:04:28.746Z,1015.69
2018-09-03T05:05:28.775Z,1015.68
2018-09-03T05:06:28.738Z,1015.61
2018-09-03T05:07:28.762Z,1015.65
2018-09-03T05:08:28.766Z,1015.58
2018-09-03T05:09:28.780Z,1015.56
2018-09-03T05:10:28.815Z,1015.62
2018-09-03T05:11:28.799Z,1015.58
2018-09-03T05:12:28.904Z,1015.53
2018-09-03T05:13:28.818Z,1015.57
2018-09-03T05:14:28.838Z,1015.66
2018-09-03T05:15:28.872Z,1015.60
2018-09-03T05:16:28.892Z,1015.61
2018-09-03T05:17:28.882Z,1015.60
2018-09-03T05:18:28.911Z,1015.60
2018-09-03T05:19:28.907Z,1015.62
2018-09-03T05:20:28.962Z,1015.62
2018-09-03T05:21:28.929Z,1015.70
2018-09-03T05:22:28.941Z,1015.66
2018-09-03T05:23:28.944Z,1015.63
2018-09-03T05:24:28.968Z,1015.61
2018-09-03T05:25:29.005Z,1015.61
2018-09-03T05:26:29.009Z,1015.60
2018-09-03T05:27:29.017Z,1015.65
2018-09-03T05:28:29.001Z,1015.72
2018-09-03T05:29:29.014Z,1015.63
2018-09-03T05:30:29.022Z,1015.61
2018-09-03T05:31:29.070Z,1015.61
2018-09-03T05:32:29.056Z,1015.61
2018-09-03T05:33:29.072Z,1015.60
2018-09-03T05:34:29.081Z,1015.61
2018-09-03T05:35:29.109Z,1015.73
2018-09-03T05:36:29.119Z,1015.70
2018-09-03T05:37:29.137Z,1015.73
2018-09-03T05:38:29.130Z,1015.69
2018-09-03T05:39:29.127Z,1015.71
2018-09-03T05:40:29.204Z,1015.70
2018-09-03T05:41:29.156Z,1015.78
2018-09-03T05:42:29.256Z,1015.74
2018-09-03T05:43:29.329Z,1015.75
2018-09-03T05:44:29.305Z,1015.76
2018-09-03T05:45:29.211Z,1015.72
2018-09-03T05:46:29.195Z,1015.69
2018-09-03T05:47:29.256Z,1015.68
2018-09-03T05:48:29.297Z,1015.72
2018-09-03T05:49:29.274Z,1015.64
2018-09-03T05:50:29.310Z,1015.71
2018-09-03T05:51:29.283Z,1015.73
2018-09-03T05:52:29.301Z,1015.73
2018-09-03T05:53:29.288Z,1015.82
2018-09-03T05:54:29.313Z,1015.70
2018-09-03T05:55:29.329Z,1015.74
2018-09-03T05:56:29.324Z,1015.72
2018-09-03T05:57:29.326Z,1015.69
2018-09-03T05:58:29.342Z,1015.67
2018-09-03T05:59:29.369Z,1015.77
2018-09-03T06:00:29.415Z,1015.69
2018-09-03T06:01:29.393Z,1015.72
2018-09-03T06:02:29.412Z,1015.72
2018-09-03T06:03:29.414Z,1015.67
2018-09-03T06:04:29.464Z,1015.65
2018-09-03T06:05:29.436Z,1015.73
2018-09-03T06:06:29.446Z,1015.65
2018-09-03T06:07:29.502Z,1015.66
2018-09-03T06:08:29.487Z,1015.67
2018-09-03T06:09:29.474Z,1015.87
2018-09-03T06:10:29.500Z,1015.72
2018-09-03T06:11:29.561Z,1015.73
2018-09-03T06:12:29.501Z,1015.75
2018-09-03T06:13:29.512Z,1015.73
2018-09-03T06:14:29.537Z,1015.74
2018-09-03T06:15:29.578Z,1015.73
2018-09-03T06:16:29.582Z,1015.75
2018-09-03T06:17:29.612Z,1015.71
2018-09-03T06:18:29.630Z,1015.78
2018-09-03T06:19:29.637Z,1015.79
2018-09-03T06:20:29.625Z,1015.80
2018-09-03T06:21:29.659Z,1015.74
2018-09-03T06:22:29.684Z,1015.80
2018-09-03T06:23:29.851Z,1015.81
2018-09-03T06:24:29.659Z,1015.77
2018-09-03T06:25:29.666Z,1015.73
2018-09-03T06:26:29.665Z,1015.76
2018-09-03T06:27:29.701Z,1015.78
2018-09-03T06:28:29.719Z,1015.82
2018-09-03T06:29:29.704Z,1015.78
2018-09-03T06:30:29.760Z,1015.77
2018-09-03T06:31:30.283Z,1015.78
2018-09-03T06:32:29.755Z,1015.80
2018-09-03T06:33:29.796Z,1015.84
2018-09-03T06:34:29.785Z,1015.76
2018-09-03T06:35:29.801Z,1015.81
2018-09-03T06:36:29.820Z,1015.83
2018-09-03T06:37:29.803Z,1015.78
2018-09-03T06:38:29.848Z,1015.69
2018-09-03T06:39:29.832Z,1015.72
2018-09-03T06:40:29.877Z,1015.69
2018-09-03T06:41:29.862Z,1015.68
2018-09-03T06:42:29.869Z,1015.75
2018-09-03T06:43:29.912Z,1015.74
2018-09-03T06:44:29.919Z,1015.73
2018-09-03T06:45:29.949Z,1015.70
2018-09-03T06:46:29.929Z,1015.68
2018-09-03T06:47:29.932Z,1015.70
2018-09-03T06:48:29.961Z,1015.66
2018-09-03T06:49:29.956Z,1015.66
2018-09-03T06:50:29.997Z,1015.71
2018-09-03T06:51:29.997Z,1015.66
2018-09-03T06:52:30.006Z,1015.63
2018-09-03T06:53:30.096Z,1015.59
2018-09-03T06:54:30.019Z,1015.62
2018-09-03T06:55:30.090Z,1015.64
2018-09-03T06:56:30.062Z,1015.65
2018-09-03T06:57:30.050Z,1015.60
2018-09-03T06:58:30.079Z,1015.63
2018-09-03T06:59:30.132Z,1015.62
2018-09-03T07:00:30.103Z,1015.67
2018-09-03T07:01:30.132Z,1015.63
2018-09-03T07:02:30.106Z,1015.63
2018-09-03T07:03:30.160Z,1015.64
2018-09-03T07:04:30.146Z,1015.61
2018-09-03T07:05:30.144Z,1015.62
2018-09-03T07:06:30.208Z,1015.68
2018-09-03T07:07:30.166Z,1015.58
2018-09-03T07:08:30.224Z,1015.59
2018-09-03T07:09:30.203Z,1015.61
2018-09-03T07:10:30.215Z,1015.67
2018-09-03T07:11:30.215Z,1015.60
2018-09-03T07:12:30.231Z,1015.63
2018-09-03T07:13:30.274Z,1015.62
2018-09-03T07:14:30.276Z,1015.59
2018-09-03T07:15:30.321Z,1015.60
2018-09-03T07:16:30.277Z,1015.60
2018-09-03T07:17:30.303Z,1015.58
2018-09-03T07:18:30.315Z,1015.56
2018-09-03T07:19:30.340Z,1015.65
2018-09-03T07:20:30.355Z,1015.71
2018-09-03T07:21:30.413Z,1015.69
2018-09-03T07:22:30.362Z,1015.61
2018-09-03T07:23:30.389Z,1015.55
2018-09-03T07:24:30.398Z,1015.51
2018-09-03T07:25:30.411Z,1015.51
2018-09-03T07:26:30.431Z,1015.48
2018-09-03T07:27:30.465Z,1015.50
2018-09-03T07:28:30.454Z,1015.48
2018-09-03T07:29:30.461Z,1015.50
2018-09-03T07:30:30.478Z,1015.50
2018-09-03T07:31:30.476Z,1015.51
2018-09-03T07:32:30.521Z,1015.48
2018-09-03T07:33:30.487Z,1015.44
2018-09-03T07:34:30.508Z,1015.46
2018-09-03T07:35:30.537Z,1015.51
2018-09-03T07:36:30.577Z,1015.49
2018-09-03T07:37:30.542Z,1015.47
2018-09-03T07:38:30.593Z,1015.45
2018-09-03T07:39:30.620Z,1015.52
2018-09-03T07:40:30.612Z,1015.46
2018-09-03T07:41:30.610Z,1015.48
2018-09-03T07:42:30.632Z,1015.48
2018-09-03T07:43:30.632Z,1015.48
2018-09-03T07:44:30.677Z,1015.48
2018-09-03T07:45:30.636Z,1015.49
2018-09-03T07:46:30.676Z,1015.48
2018-09-03T07:47:30.712Z,1015.51
2018-09-03T07:48:30.692Z,1015.48
2018-09-03T07:49:30.732Z,1015.50
2018-09-03T07:50:30.715Z,1015.56
2018-09-03T07:51:30.760Z,1015.52
2018-09-03T07:52:30.788Z,1015.62
2018-09-03T07:53:30.737Z,1015.53
2018-09-03T07:54:30.772Z,1015.56
2018-09-03T07:55:30.836Z,1015.54
2018-09-03T07:56:30.835Z,1015.54
2018-09-03T07:57:30.934Z,1015.52
2018-09-03T07:58:30.808Z,1015.53
2018-09-03T07:59:30.959Z,1015.55
2018-09-03T08:00:30.940Z,1015.54
2018-09-03T08:01:30.911Z,1015.53
2018-09-03T08:02:30.925Z,1015.52
2018-09-03T08:03:31.024Z,1015.55
2018-09-03T08:04:30.901Z,1015.53
2018-09-03T08:05:30.921Z,1015.54
2018-09-03T08:06:30.935Z,1015.53
2018-09-03T08:07:30.973Z,1015.60
2018-09-03T08:08:30.969Z,1015.59
2018-09-03T08:09:30.947Z,1015.62
2018-09-03T08:10:30.976Z,1015.63
2018-09-03T08:11:31.000Z,1015.62
2018-09-03T08:12:30.990Z,1015.63
2018-09-03T08:13:31.032Z,1015.61
2018-09-03T08:14:31.066Z,1015.62
2018-09-03T08:15:31.056Z,1015.61
2018-09-03T08:16:31.077Z,1015.52
2018-09-03T08:17:31.088Z,1015.55
2018-09-03T08:18:31.092Z,1015.45
2018-09-03T08:19:31.116Z,1015.46
2018-09-03T08:20:31.121Z,1015.40
2018-09-03T08:21:31.168Z,1015.38
2018-09-03T08:22:31.145Z,1015.36
2018-09-03T08:23:31.158Z,1015.36
2018-09-03T08:24:31.162Z,1015.30
2018-09-03T08:25:31.180Z,1015.38
2018-09-03T08:26:31.197Z,1015.30
2018-09-03T08:27:31.213Z,1015.34
2018-09-03T08:28:31.230Z,1015.31
2018-09-03T08:29:31.231Z,1015.31
2018-09-03T08:30:31.266Z,1015.30
2018-09-03T08:31:31.265Z,1015.25
2018-09-03T08:32:31.304Z,1015.29
2018-09-03T08:33:31.279Z,1015.27
2018-09-03T08:34:31.492Z,1015.25
2018-09-03T08:35:31.347Z,1015.28
2018-09-03T08:36:31.319Z,1015.25
2018-09-03T08:37:31.367Z,1015.32
2018-09-03T08:38:31.345Z,1015.23
2018-09-03T08:39:31.364Z,1015.26
2018-09-03T08:40:31.367Z,1015.22
2018-09-03T08:41:31.425Z,1015.21
2018-09-03T08:42:31.410Z,1015.24
2018-09-03T08:43:31.429Z,1015.20
2018-09-03T08:44:31.541Z,1015.19
2018-09-03T08:45:31.454Z,1015.20
2018-09-03T08:46:31.468Z,1015.18
2018-09-03T08:47:31.518Z,1015.18
2018-09-03T08:48:31.495Z,1015.18
2018-09-03T08:49:31.481Z,1015.11
2018-09-03T08:50:31.496Z,1015.21
2018-09-03T08:51:31.528Z,1015.29
2018-09-03T08:52:31.576Z,1015.18
2018-09-03T08:53:31.547Z,1015.12
2018-09-03T08:54:31.600Z,1015.10
2018-09-03T08:55:31.562Z,1015.08
2018-09-03T08:56:31.665Z,1015.10
2018-09-03T08:57:31.613Z,1015.10
2018-09-03T08:58:31.613Z,1015.07
2018-09-03T08:59:31.626Z,1015.06
2018-09-03T09:00:31.653Z,1015.06
2018-09-03T09:01:31.658Z,1015.11
2018-09-03T09:02:31.700Z,1015.05
2018-09-03T09:03:31.694Z,1015.05
2018-09-03T09:04:31.729Z,1015.03
2018-09-03T09:05:31.705Z,1015.02
2018-09-03T09:06:31.730Z,1015.02
2018-09-03T09:07:31.760Z,1015.05
2018-09-03T09:08:31.753Z,1015.08
2018-09-03T09:09:31.803Z,1015.04
2018-09-03T09:10:31.809Z,1014.99
2018-09-03T09:11:31.773Z,1015.04
2018-09-03T09:12:31.799Z,1015.05
2018-09-03T09:13:31.812Z,1015.01
2018-09-03T09:14:31.850Z,1015.07
2018-09-03T09:15:31.877Z,1015.01
2018-09-03T09:16:31.850Z,1015.05
2018-09-03T09:17:31.922Z,1014.95
2018-09-03T09:18:31.872Z,1014.93
2018-09-03T09:19:31.898Z,1014.92
2018-09-03T09:20:31.916Z,1014.97
2018-09-03T09:21:31.941Z,1014.94
2018-09-03T09:22:32.029Z,1014.94
2018-09-03T09:23:31.991Z,1014.93
2018-09-03T09:24:31.985Z,1014.96
2018-09-03T09:25:31.986Z,1015.01
2018-09-03T09:26:31.990Z,1014.90
2018-09-03T09:27:32.102Z,1014.91
2018-09-03T09:28:32.004Z,1014.87
2018-09-03T09:29:32.034Z,1014.89
2018-09-03T09:30:32.025Z,1014.86
2018-09-03T09:31:32.050Z,1014.85
2018-09-03T09:32:32.083Z,1014.87
2018-09-03T09:33:32.122Z,1014.84
2018-09-03T09:34:32.085Z,1014.87
2018-09-03T09:35:32.104Z,1014.86
2018-09-03T09:36:32.161Z,1014.85
2018-09-03T09:37:32.126Z,1014.86
2018-09-03T09:38:32.185Z,1014.78
2018-09-03T09:39:32.142Z,1014.83
2018-09-03T09:40:32.180Z,1014.78
2018-09-03T09:41:32.213Z,1014.76
2018-09-03T09:42:32.196Z,1014.76
2018-09-03T09:43:32.244Z,1014.73
2018-09-03T09:44:32.255Z,1014.75
2018-09-03T09:45:32.221Z,1014.72
2018-09-03T09:46:32.259Z,1014.70
2018-09-03T09:47:32.283Z,1014.64
2018-09-03T09:48:32.300Z,1014.63
2018-09-03T09:49:32.321Z,1014.65
2018-09-03T09:50:32.294Z,1014.68
2018-09-03T09:51:32.380Z,1014.63
2018-09-03T09:52:32.333Z,1014.63
2018-09-03T09:53:32.344Z,1014.68
2018-09-03T09:54:32.843Z,1014.55
2018-09-03T09:55:32.371Z,1014.51
2018-09-03T09:56:32.402Z,1014.56
2018-09-03T09:57:32.391Z,1014.64
2018-09-03T09:58:32.423Z,1014.57
2018-09-03T09:59:32.500Z,1014.55
2018-09-03T10:00:32.437Z,1014.54
2018-09-03T10:01:32.460Z,1014.54
2018-09-03T10:02:32.473Z,1014.71
2018-09-03T10:03:32.533Z,1014.51
2018-09-03T10:04:32.477Z,1014.57
2018-09-03T10:05:32.491Z,1014.65
2018-09-03T10:06:32.557Z,1014.48
2018-09-03T10:07:32.550Z,1014.56
2018-09-03T10:08:32.555Z,1014.45
2018-09-03T10:09:32.580Z,1014.50
2018-09-03T10:10:32.614Z,1014.49
2018-09-03T10:11:32.594Z,1014.41
2018-09-03T10:12:32.617Z,1014.43
2018-09-03T10:13:32.620Z,1014.39
2018-09-03T10:14:32.657Z,1014.49
2018-09-03T10:15:32.648Z,1014.54
2018-09-03T10:16:32.690Z,1014.47
2018-09-03T10:17:32.654Z,1014.44
2018-09-03T10:18:32.724Z,1014.47
2018-09-03T10:19:32.692Z,1014.34
2018-09-03T10:20:32.754Z,1014.45
2018-09-03T10:21:32.724Z,1014.42
2018-09-03T10:22:32.730Z,1014.46
2018-09-03T10:23:32.763Z,1014.44
2018-09-03T10:24:32.795Z,1014.31
2018-09-03T10:25:32.786Z,1014.31
2018-09-03T10:26:32.783Z,1014.34
2018-09-03T10:27:32.872Z,1014.26
2018-09-03T10:28:32.856Z,1014.36
2018-09-03T10:29:32.908Z,1014.29
2018-09-03T10:30:32.867Z,1014.30
2018-09-03T10:31:32.900Z,1014.39
2018-09-03T10:32:32.886Z,1014.40
2018-09-03T10:33:32.906Z,1014.33
2018-09-03T10:34:32.955Z,1014.26
2018-09-03T10:35:32.998Z,1014.25
2018-09-03T10:36:32.970Z,1014.25
2018-09-03T10:37:32.939Z,1014.34
2018-09-03T10:38:32.975Z,1014.33
2018-09-03T10:39:32.985Z,1014.35
2018-09-03T10:40:33.002Z,1014.34
2018-09-03T10:41:32.995Z,1014.26
2018-09-03T10:42:33.050Z,1014.24
2018-09-03T10:43:33.057Z,1014.19
2018-09-03T10:44:33.063Z,1014.20
2018-09-03T10:45:33.070Z,1014.21
2018-09-03T10:46:33.065Z,1014.22
2018-09-03T10:47:33.104Z,1014.17
2018-09-03T10:48:33.086Z,1014.15
2018-09-03T10:49:33.150Z,1014.14
2018-09-03T10:50:33.116Z,1014.11
2018-09-03T10:51:33.145Z,1014.12
2018-09-03T10:52:33.171Z,1014.19
2018-09-03T10:53:33.176Z,1014.02
2018-09-03T10:54:33.201Z,1014.35
2018-09-03T10:55:33.198Z,1014.22
2018-09-03T10:56:33.206Z,1014.31
2018-09-03T10:57:33.232Z,1014.17
2018-09-03T10:58:33.250Z,1014.17
2018-09-03T10:59:33.273Z,1014.14
2018-09-03T11:00:33.316Z,1014.18
2018-09-03T11:01:33.291Z,1014.15
2018-09-03T11:02:33.309Z,1014.05
2018-09-03T11:03:33.307Z,1014.06
2018-09-03T11:04:33.360Z,1014.12
2018-09-03T11:05:33.358Z,1014.03
2018-09-03T11:06:33.382Z,1014.21
2018-09-03T11:07:33.365Z,1014.10
2018-09-03T11:08:33.397Z,1014.15
2018-09-03T11:09:33.401Z,1014.11
2018-09-03T11:10:33.400Z,1014.10
2018-09-03T11:11:33.448Z,1013.99
2018-09-03T11:12:33.468Z,1014.04
2018-09-03T11:13:33.457Z,1013.97
2018-09-03T11:14:33.471Z,1014.05
2018-09-03T11:15:33.487Z,1013.92
2018-09-03T11:16:33.497Z,1013.96
2018-09-03T11:17:33.594Z,1013.95
2018-09-03T11:18:33.526Z,1013.91
2018-09-03T11:19:33.537Z,1013.97
2018-09-03T11:20:33.542Z,1013.93
2018-09-03T11:21:33.716Z,1013.92
2018-09-03T11:22:33.676Z,1013.99
2018-09-03T11:23:33.635Z,1013.96
2018-09-03T11:24:33.658Z,1013.95
2018-09-03T11:25:33.612Z,1013.96
2018-09-03T11:26:33.627Z,1013.98
2018-09-03T11:27:33.678Z,1013.94
2018-09-03T11:28:33.726Z,1013.89
2018-09-03T11:29:33.677Z,1013.89
2018-09-03T11:30:33.703Z,1013.88
2018-09-03T11:31:33.723Z,1013.87
2018-09-03T11:32:33.720Z,1013.84
2018-09-03T11:33:33.766Z,1013.89
2018-09-03T11:34:33.779Z,1013.89
2018-09-03T11:35:33.824Z,1013.89
2018-09-03T11:36:33.783Z,1013.77
2018-09-03T11:37:33.791Z,1013.78
2018-09-03T11:38:33.821Z,1013.79
2018-09-03T11:39:33.832Z,1013.78
2018-09-03T11:40:33.873Z,1013.80
2018-09-03T11:41:33.894Z,1013.80
2018-09-03T11:42:33.860Z,1013.76
2018-09-03T11:43:33.904Z,1013.73
2018-09-03T11:44:33.910Z,1013.80
2018-09-03T11:45:33.951Z,1013.78
2018-09-03T11:46:33.961Z,1013.76
2018-09-03T11:47:33.961Z,1013.86
2018-09-03T11:48:33.966Z,1013.76
2018-09-03T11:49:33.998Z,1013.72
2018-09-03T11:50:34.003Z,1013.71
2018-09-03T11:51:34.043Z,1013.63
2018-09-03T11:52:34.053Z,1013.66
2018-09-03T11:53:34.078Z,1013.68
2018-09-03T11:54:34.157Z,1013.56
2018-09-03T11:55:34.079Z,1013.62
2018-09-03T11:56:34.072Z,1013.64
2018-09-03T11:57:34.161Z,1013.68
2018-09-03T11:58:34.152Z,1013.60
2018-09-03T11:59:34.124Z,1013.53
2018-09-03T12:00:34.165Z,1013.53
2018-09-03T12:01:34.152Z,1013.50
2018-09-03T12:02:34.159Z,1013.58
2018-09-03T12:03:34.256Z,1013.49
2018-09-03T12:04:34.222Z,1013.58
2018-09-03T12:05:34.207Z,1013.58
2018-09-03T12:06:34.259Z,1013.59
2018-09-03T12:07:34.241Z,1013.55
2018-09-03T12:08:34.309Z,1013.53
2018-09-03T12:09:34.293Z,1013.52
2018-09-03T12:10:34.321Z,1013.48
2018-09-03T12:11:34.307Z,1013.47
2018-09-03T12:12:34.476Z,1013.48
2018-09-03T12:13:34.335Z,1013.49
2018-09-03T12:14:34.399Z,1013.46
2018-09-03T12:15:34.366Z,1013.51
2018-09-03T12:16:34.371Z,1013.48
2018-09-03T12:17:34.434Z,1013.45